sensor_id;sensor_type;location;lat;lon;timestamp;temperature;humidity
20459;DHT22;10388;52.314;7.938;2023-04-04T00:08:41;0.50;99.90
20459;DHT22;10388;52.314;7.938;2023-04-04T00:15:08;0.50;99.90
20459;DHT22;10388;52.314;7.938;2023-04-04T00:18:32;0.50;99.90
20459;DHT22;10388;52.314;7.938;2023-04-04T00:28:03;0.50;99.90
20459;DHT22;10388;52.314;7.938;2023-04-04T00:31:26;0.50;99.90
20459;DHT22;10388;52.314;7.938;2023-04-04T00:37:55;0.20;99.90
20459;DHT22;10388;52.314;7.938;2023-04-04T00:44:31;0.00;99.90
20459;DHT22;10388;52.314;7.938;2023-04-04T00:47:54;-0.10;99.90
20459;DHT22;10388;52.314;7.938;2023-04-04T00:50:55;-0.10;99.90
20459;DHT22;10388;52.314;7.938;2023-04-04T00:54:20;-0.20;99.90
20459;DHT22;10388;52.314;7.938;2023-04-04T01:21:11;-0.70;99.90
20459;DHT22;10388;52.314;7.938;2023-04-04T01:24:21;-0.80;99.90
20459;DHT22;10388;52.314;7.938;2023-04-04T01:27:31;-0.80;99.90
20459;DHT22;10388;52.314;7.938;2023-04-04T01:30:17;-0.80;99.90
20459;DHT22;10388;52.314;7.938;2023-04-04T01:37:07;-0.90;99.90
20459;DHT22;10388;52.314;7.938;2023-04-04T01:47:23;-1.00;99.90
20459;DHT22;10388;52.314;7.938;2023-04-04T01:50:13;-1.10;99.90
20459;DHT22;10388;52.314;7.938;2023-04-04T01:52:52;-1.10;99.90
20459;DHT22;10388;52.314;7.938;2023-04-04T02:16:09;-1.40;99.90
20459;DHT22;10388;52.314;7.938;2023-04-04T02:25:33;-1.50;99.90
20459;DHT22;10388;52.314;7.938;2023-04-04T02:29:01;-1.50;99.90
20459;DHT22;10388;52.314;7.938;2023-04-04T02:31:36;-1.50;99.90
20459;DHT22;10388;52.314;7.938;2023-04-04T02:35:00;-1.60;99.90
20459;DHT22;10388;52.314;7.938;2023-04-04T02:41:09;-1.70;99.90
20459;DHT22;10388;52.314;7.938;2023-04-04T02:44:38;-1.70;99.90
20459;DHT22;10388;52.314;7.938;2023-04-04T02:51:02;-1.80;99.90
20459;DHT22;10388;52.314;7.938;2023-04-04T02:54:19;-1.80;99.90
20459;DHT22;10388;52.314;7.938;2023-04-04T03:15:09;-2.00;99.90
20459;DHT22;10388;52.314;7.938;2023-04-04T03:18:08;-2.10;99.90
20459;DHT22;10388;52.314;7.938;2023-04-04T03:21:13;-2.10;99.90
20459;DHT22;10388;52.314;7.938;2023-04-04T03:24:12;-2.10;99.90
20459;DHT22;10388;52.314;7.938;2023-04-04T03:27:41;-2.20;99.90
20459;DHT22;10388;52.314;7.938;2023-04-04T03:43:45;-2.30;99.90
20459;DHT22;10388;52.314;7.938;2023-04-04T03:46:33;-2.30;99.90
20459;DHT22;10388;52.314;7.938;2023-04-04T03:49:22;-2.30;99.90
20459;DHT22;10388;52.314;7.938;2023-04-04T03:52:22;-2.40;99.90
20459;DHT22;10388;52.314;7.938;2023-04-04T03:55:10;-2.40;99.90
20459;DHT22;10388;52.314;7.938;2023-04-04T04:11:45;-2.60;99.90
20459;DHT22;10388;52.314;7.938;2023-04-04T04:19:11;-2.50;99.90
20459;DHT22;10388;52.314;7.938;2023-04-04T04:22:06;-2.60;99.90
20459;DHT22;10388;52.314;7.938;2023-04-04T04:24:47;-2.70;99.90
20459;DHT22;10388;52.314;7.938;2023-04-04T04:35:10;-2.70;99.90
20459;DHT22;10388;52.314;7.938;2023-04-04T04:38:04;-2.70;99.90
20459;DHT22;10388;52.314;7.938;2023-04-04T04:40:35;-2.70;99.90
20459;DHT22;10388;52.314;7.938;2023-04-04T04:43:06;-2.70;99.90
20459;DHT22;10388;52.314;7.938;2023-04-04T04:45:36;-2.70;99.90
20459;DHT22;10388;52.314;7.938;2023-04-04T04:48:07;-2.80;99.90
20459;DHT22;10388;52.314;7.938;2023-04-04T04:50:38;-2.80;99.90
20459;DHT22;10388;52.314;7.938;2023-04-04T04:53:08;-2.90;99.90
20459;DHT22;10388;52.314;7.938;2023-04-04T04:55:39;-2.90;99.90
20459;DHT22;10388;52.314;7.938;2023-04-04T04:58:09;-2.90;99.90
20459;DHT22;10388;52.314;7.938;2023-04-04T05:00:40;-2.90;99.90
20459;DHT22;10388;52.314;7.938;2023-04-04T05:03:10;-2.90;99.90
20459;DHT22;10388;52.314;7.938;2023-04-04T05:05:44;-2.90;99.90
20459;DHT22;10388;52.314;7.938;2023-04-04T05:08:15;-2.80;99.90
20459;DHT22;10388;52.314;7.938;2023-04-04T05:10:45;-2.90;99.90
20459;DHT22;10388;52.314;7.938;2023-04-04T05:13:16;-2.90;99.90
20459;DHT22;10388;52.314;7.938;2023-04-04T05:15:46;-2.90;99.90
20459;DHT22;10388;52.314;7.938;2023-04-04T05:18:17;-2.90;99.90
20459;DHT22;10388;52.314;7.938;2023-04-04T05:20:54;-2.90;99.90
20459;DHT22;10388;52.314;7.938;2023-04-04T05:23:25;-2.90;99.90
20459;DHT22;10388;52.314;7.938;2023-04-04T05:25:55;-2.90;99.90
20459;DHT22;10388;52.314;7.938;2023-04-04T05:28:26;-2.80;99.90
20459;DHT22;10388;52.314;7.938;2023-04-04T05:30:57;-2.80;99.90
20459;DHT22;10388;52.314;7.938;2023-04-04T05:33:27;-2.70;99.90
20459;DHT22;10388;52.314;7.938;2023-04-04T05:36:01;-2.70;99.90
20459;DHT22;10388;52.314;7.938;2023-04-04T05:38:32;-2.70;99.90
20459;DHT22;10388;52.314;7.938;2023-04-04T05:41:02;-2.60;99.90
20459;DHT22;10388;52.314;7.938;2023-04-04T05:43:33;-2.60;99.90
20459;DHT22;10388;52.314;7.938;2023-04-04T05:46:03;-2.50;99.90
20459;DHT22;10388;52.314;7.938;2023-04-04T05:48:34;-2.40;99.90
20459;DHT22;10388;52.314;7.938;2023-04-04T05:51:05;-2.40;99.90
20459;DHT22;10388;52.314;7.938;2023-04-04T05:53:35;-2.30;99.90
20459;DHT22;10388;52.314;7.938;2023-04-04T05:56:06;-2.20;99.90
20459;DHT22;10388;52.314;7.938;2023-04-04T05:58:36;-2.20;99.90
20459;DHT22;10388;52.314;7.938;2023-04-04T06:01:08;-2.20;99.90
20459;DHT22;10388;52.314;7.938;2023-04-04T06:03:38;-2.10;99.90
20459;DHT22;10388;52.314;7.938;2023-04-04T06:06:09;-2.00;99.90
20459;DHT22;10388;52.314;7.938;2023-04-04T06:08:39;-1.90;99.90
20459;DHT22;10388;52.314;7.938;2023-04-04T06:11:10;-1.90;99.90
20459;DHT22;10388;52.314;7.938;2023-04-04T06:13:41;-1.90;99.90
20459;DHT22;10388;52.314;7.938;2023-04-04T06:16:11;-1.90;99.90
20459;DHT22;10388;52.314;7.938;2023-04-04T06:18:42;-1.80;99.90
20459;DHT22;10388;52.314;7.938;2023-04-04T06:21:12;-1.70;99.90
20459;DHT22;10388;52.314;7.938;2023-04-04T06:23:43;-1.60;99.90
20459;DHT22;10388;52.314;7.938;2023-04-04T06:26:13;-1.50;99.90
20459;DHT22;10388;52.314;7.938;2023-04-04T06:28:50;-1.50;99.90
20459;DHT22;10388;52.314;7.938;2023-04-04T06:31:21;-1.40;99.90
20459;DHT22;10388;52.314;7.938;2023-04-04T06:33:51;-1.40;99.90
20459;DHT22;10388;52.314;7.938;2023-04-04T06:36:22;-1.30;99.90
20459;DHT22;10388;52.314;7.938;2023-04-04T06:38:52;-1.10;99.90
20459;DHT22;10388;52.314;7.938;2023-04-04T06:41:23;-0.90;99.90
20459;DHT22;10388;52.314;7.938;2023-04-04T06:43:53;-0.80;99.90
20459;DHT22;10388;52.314;7.938;2023-04-04T06:46:24;-0.70;99.90
20459;DHT22;10388;52.314;7.938;2023-04-04T06:48:56;-0.60;99.90
20459;DHT22;10388;52.314;7.938;2023-04-04T06:51:26;-0.60;99.90
20459;DHT22;10388;52.314;7.938;2023-04-04T06:53:59;-0.50;99.90
20459;DHT22;10388;52.314;7.938;2023-04-04T06:56:30;-0.50;99.90
20459;DHT22;10388;52.314;7.938;2023-04-04T06:59:00;-0.30;99.90
20459;DHT22;10388;52.314;7.938;2023-04-04T07:01:34;-0.10;99.90
20459;DHT22;10388;52.314;7.938;2023-04-04T07:04:04;-0.10;99.90
20459;DHT22;10388;52.314;7.938;2023-04-04T07:06:35;0.10;99.90
20459;DHT22;10388;52.314;7.938;2023-04-04T07:09:05;0.20;99.90
20459;DHT22;10388;52.314;7.938;2023-04-04T07:11:36;0.40;99.90
20459;DHT22;10388;52.314;7.938;2023-04-04T07:14:07;0.40;99.90
20459;DHT22;10388;52.314;7.938;2023-04-04T07:16:37;0.50;99.90
20459;DHT22;10388;52.314;7.938;2023-04-04T07:19:08;0.60;99.90
20459;DHT22;10388;52.314;7.938;2023-04-04T07:21:38;0.70;99.90
20459;DHT22;10388;52.314;7.938;2023-04-04T07:24:09;0.70;99.90
20459;DHT22;10388;52.314;7.938;2023-04-04T07:26:39;0.70;99.90
20459;DHT22;10388;52.314;7.938;2023-04-04T07:29:10;0.80;99.90
20459;DHT22;10388;52.314;7.938;2023-04-04T07:31:41;0.90;99.90
20459;DHT22;10388;52.314;7.938;2023-04-04T07:34:11;1.00;99.90
20459;DHT22;10388;52.314;7.938;2023-04-04T07:36:42;1.20;99.90
20459;DHT22;10388;52.314;7.938;2023-04-04T07:39:12;1.20;99.90
20459;DHT22;10388;52.314;7.938;2023-04-04T07:41:43;1.30;99.90
20459;DHT22;10388;52.314;7.938;2023-04-04T07:44:13;1.60;99.90
20459;DHT22;10388;52.314;7.938;2023-04-04T07:46:45;1.70;99.90
20459;DHT22;10388;52.314;7.938;2023-04-04T07:49:15;1.80;99.90
20459;DHT22;10388;52.314;7.938;2023-04-04T07:51:46;2.00;99.90
20459;DHT22;10388;52.314;7.938;2023-04-04T07:54:16;2.00;99.90
20459;DHT22;10388;52.314;7.938;2023-04-04T07:56:47;2.10;99.90
20459;DHT22;10388;52.314;7.938;2023-04-04T07:59:17;2.30;99.90
20459;DHT22;10388;52.314;7.938;2023-04-04T08:01:48;2.40;99.90
20459;DHT22;10388;52.314;7.938;2023-04-04T08:04:18;2.50;99.90
20459;DHT22;10388;52.314;7.938;2023-04-04T08:06:49;2.70;99.90
20459;DHT22;10388;52.314;7.938;2023-04-04T08:09:19;2.80;99.90
20459;DHT22;10388;52.314;7.938;2023-04-04T08:11:50;2.90;99.90
20459;DHT22;10388;52.314;7.938;2023-04-04T08:14:20;3.00;99.90
20459;DHT22;10388;52.314;7.938;2023-04-04T08:16:51;3.20;99.90
20459;DHT22;10388;52.314;7.938;2023-04-04T08:19:22;3.30;99.90
20459;DHT22;10388;52.314;7.938;2023-04-04T08:21:53;3.30;99.90
20459;DHT22;10388;52.314;7.938;2023-04-04T08:24:23;3.40;99.90
20459;DHT22;10388;52.314;7.938;2023-04-04T08:26:54;3.40;99.90
20459;DHT22;10388;52.314;7.938;2023-04-04T08:29:24;3.60;99.90
20459;DHT22;10388;52.314;7.938;2023-04-04T08:31:56;3.70;99.90
20459;DHT22;10388;52.314;7.938;2023-04-04T08:34:26;3.90;99.90
20459;DHT22;10388;52.314;7.938;2023-04-04T08:36:57;3.90;99.90
20459;DHT22;10388;52.314;7.938;2023-04-04T08:39:29;4.10;99.90
20459;DHT22;10388;52.314;7.938;2023-04-04T08:42:04;4.20;99.90
20459;DHT22;10388;52.314;7.938;2023-04-04T08:44:36;4.30;99.90
20459;DHT22;10388;52.314;7.938;2023-04-04T08:47:09;4.40;99.90
20459;DHT22;10388;52.314;7.938;2023-04-04T08:49:43;4.60;99.90
20459;DHT22;10388;52.314;7.938;2023-04-04T08:52:17;4.70;99.90
20459;DHT22;10388;52.314;7.938;2023-04-04T08:54:50;4.80;99.90
20459;DHT22;10388;52.314;7.938;2023-04-04T08:57:21;4.70;99.90
20459;DHT22;10388;52.314;7.938;2023-04-04T08:59:52;4.80;99.90
20459;DHT22;10388;52.314;7.938;2023-04-04T09:02:29;4.90;99.90
20459;DHT22;10388;52.314;7.938;2023-04-04T09:05:03;5.00;99.90
20459;DHT22;10388;52.314;7.938;2023-04-04T09:07:36;5.10;99.90
20459;DHT22;10388;52.314;7.938;2023-04-04T09:10:08;5.20;99.90
20459;DHT22;10388;52.314;7.938;2023-04-04T09:12:44;5.40;99.90
20459;DHT22;10388;52.314;7.938;2023-04-04T09:15:16;5.60;99.90
20459;DHT22;10388;52.314;7.938;2023-04-04T09:17:47;5.70;99.90
20459;DHT22;10388;52.314;7.938;2023-04-04T09:20:37;5.70;99.90
20459;DHT22;10388;52.314;7.938;2023-04-04T09:23:18;5.60;99.90
20459;DHT22;10388;52.314;7.938;2023-04-04T09:25:54;5.80;99.90
20459;DHT22;10388;52.314;7.938;2023-04-04T09:28:24;5.80;99.90
20459;DHT22;10388;52.314;7.938;2023-04-04T09:30:55;6.00;99.90
20459;DHT22;10388;52.314;7.938;2023-04-04T09:33:25;5.90;99.90
20459;DHT22;10388;52.314;7.938;2023-04-04T09:35:58;5.80;99.90
20459;DHT22;10388;52.314;7.938;2023-04-04T09:38:29;6.00;99.90
20459;DHT22;10388;52.314;7.938;2023-04-04T09:41:01;6.00;99.90
20459;DHT22;10388;52.314;7.938;2023-04-04T09:46:06;6.20;99.90
20459;DHT22;10388;52.314;7.938;2023-04-04T09:48:37;6.20;99.90
20459;DHT22;10388;52.314;7.938;2023-04-04T09:51:11;6.30;99.90
20459;DHT22;10388;52.314;7.938;2023-04-04T09:53:46;6.50;99.90
20459;DHT22;10388;52.314;7.938;2023-04-04T09:56:18;6.60;99.90
20459;DHT22;10388;52.314;7.938;2023-04-04T09:58:48;6.40;99.90
20459;DHT22;10388;52.314;7.938;2023-04-04T10:01:19;6.60;99.90
20459;DHT22;10388;52.314;7.938;2023-04-04T10:03:51;6.90;99.90
20459;DHT22;10388;52.314;7.938;2023-04-04T10:06:23;7.10;99.90
20459;DHT22;10388;52.314;7.938;2023-04-04T10:08:55;7.00;99.90
20459;DHT22;10388;52.314;7.938;2023-04-04T10:11:30;7.30;99.90
20459;DHT22;10388;52.314;7.938;2023-04-04T10:14:01;7.40;99.90
20459;DHT22;10388;52.314;7.938;2023-04-04T10:16:33;7.70;99.90
20459;DHT22;10388;52.314;7.938;2023-04-04T10:19:07;7.60;99.90
20459;DHT22;10388;52.314;7.938;2023-04-04T10:21:39;7.50;99.90
20459;DHT22;10388;52.314;7.938;2023-04-04T10:24:10;7.70;99.90
20459;DHT22;10388;52.314;7.938;2023-04-04T10:26:40;7.80;99.90
20459;DHT22;10388;52.314;7.938;2023-04-04T10:29:11;8.10;99.90
20459;DHT22;10388;52.314;7.938;2023-04-04T10:31:42;8.20;99.90
20459;DHT22;10388;52.314;7.938;2023-04-04T10:34:23;8.20;99.90
20459;DHT22;10388;52.314;7.938;2023-04-04T10:37:17;8.40;99.90
20459;DHT22;10388;52.314;7.938;2023-04-04T10:39:52;8.50;99.90
20459;DHT22;10388;52.314;7.938;2023-04-04T10:42:25;8.40;99.90
20459;DHT22;10388;52.314;7.938;2023-04-04T10:44:59;8.00;99.90
20459;DHT22;10388;52.314;7.938;2023-04-04T10:47:32;7.80;99.90
20459;DHT22;10388;52.314;7.938;2023-04-04T10:50:04;8.30;99.90
20459;DHT22;10388;52.314;7.938;2023-04-04T10:52:41;8.80;99.90
20459;DHT22;10388;52.314;7.938;2023-04-04T10:55:13;8.90;99.90
20459;DHT22;10388;52.314;7.938;2023-04-04T10:57:46;9.10;99.90
20459;DHT22;10388;52.314;7.938;2023-04-04T11:00:22;8.30;99.90
20459;DHT22;10388;52.314;7.938;2023-04-04T11:02:58;8.40;99.90
20459;DHT22;10388;52.314;7.938;2023-04-04T11:05:34;8.80;99.90
20459;DHT22;10388;52.314;7.938;2023-04-04T11:08:26;8.70;99.90
20459;DHT22;10388;52.314;7.938;2023-04-04T11:10:58;8.50;99.90
20459;DHT22;10388;52.314;7.938;2023-04-04T11:13:33;9.10;99.90
20459;DHT22;10388;52.314;7.938;2023-04-04T11:16:10;9.40;99.90
20459;DHT22;10388;52.314;7.938;2023-04-04T11:18:45;9.70;99.90
20459;DHT22;10388;52.314;7.938;2023-04-04T11:21:19;9.30;99.90
20459;DHT22;10388;52.314;7.938;2023-04-04T11:28:58;9.80;99.90
20459;DHT22;10388;52.314;7.938;2023-04-04T11:31:33;9.90;99.90
20459;DHT22;10388;52.314;7.938;2023-04-04T11:44:27;10.00;99.90
20459;DHT22;10388;52.314;7.938;2023-04-04T11:49:42;9.60;99.90
20459;DHT22;10388;52.314;7.938;2023-04-04T11:52:14;10.20;99.90
20459;DHT22;10388;52.314;7.938;2023-04-04T11:54:46;10.60;99.90
20459;DHT22;10388;52.314;7.938;2023-04-04T11:57:18;10.50;99.90
20459;DHT22;10388;52.314;7.938;2023-04-04T11:59:50;10.30;99.90
20459;DHT22;10388;52.314;7.938;2023-04-04T12:02:24;10.20;99.90
20459;DHT22;10388;52.314;7.938;2023-04-04T12:05:01;10.20;99.90
20459;DHT22;10388;52.314;7.938;2023-04-04T12:07:33;10.30;99.90
20459;DHT22;10388;52.314;7.938;2023-04-04T12:10:05;9.60;99.90
20459;DHT22;10388;52.314;7.938;2023-04-04T12:12:37;10.00;99.90
20459;DHT22;10388;52.314;7.938;2023-04-04T12:15:09;10.40;99.90
20459;DHT22;10388;52.314;7.938;2023-04-04T12:17:42;10.70;99.90
20459;DHT22;10388;52.314;7.938;2023-04-04T12:20:17;10.80;99.90
20459;DHT22;10388;52.314;7.938;2023-04-04T12:22:51;9.80;99.90
20459;DHT22;10388;52.314;7.938;2023-04-04T12:25:22;10.70;99.90
20459;DHT22;10388;52.314;7.938;2023-04-04T12:27:54;11.00;99.90
20459;DHT22;10388;52.314;7.938;2023-04-04T12:30:25;11.30;99.90
20459;DHT22;10388;52.314;7.938;2023-04-04T12:32:56;11.60;99.90
20459;DHT22;10388;52.314;7.938;2023-04-04T12:35:28;11.40;99.90
20459;DHT22;10388;52.314;7.938;2023-04-04T12:38:05;10.80;99.90
20459;DHT22;10388;52.314;7.938;2023-04-04T12:40:40;11.40;99.90
20459;DHT22;10388;52.314;7.938;2023-04-04T12:43:16;11.30;99.90
20459;DHT22;10388;52.314;7.938;2023-04-04T12:45:49;11.30;99.90
20459;DHT22;10388;52.314;7.938;2023-04-04T12:48:26;11.20;99.90
20459;DHT22;10388;52.314;7.938;2023-04-04T12:50:58;10.30;99.90
20459;DHT22;10388;52.314;7.938;2023-04-04T12:53:29;10.70;99.90
20459;DHT22;10388;52.314;7.938;2023-04-04T12:56:03;10.50;99.90
20459;DHT22;10388;52.314;7.938;2023-04-04T12:58:34;11.30;99.90
20459;DHT22;10388;52.314;7.938;2023-04-04T13:01:05;10.90;99.90
20459;DHT22;10388;52.314;7.938;2023-04-04T13:03:37;11.40;99.90
20459;DHT22;10388;52.314;7.938;2023-04-04T13:06:16;11.60;99.90
20459;DHT22;10388;52.314;7.938;2023-04-04T13:08:52;10.60;99.90
20459;DHT22;10388;52.314;7.938;2023-04-04T13:11:23;11.00;99.90
20459;DHT22;10388;52.314;7.938;2023-04-04T13:14:01;11.70;99.90
20459;DHT22;10388;52.314;7.938;2023-04-04T13:16:34;11.80;99.90
20459;DHT22;10388;52.314;7.938;2023-04-04T13:19:07;11.70;99.90
20459;DHT22;10388;52.314;7.938;2023-04-04T13:21:38;12.00;99.90
20459;DHT22;10388;52.314;7.938;2023-04-04T13:24:09;11.70;99.90
20459;DHT22;10388;52.314;7.938;2023-04-04T13:26:40;11.30;99.90
20459;DHT22;10388;52.314;7.938;2023-04-04T13:29:10;11.30;99.90
20459;DHT22;10388;52.314;7.938;2023-04-04T13:31:41;11.00;99.90
20459;DHT22;10388;52.314;7.938;2023-04-04T13:34:11;11.20;99.90
20459;DHT22;10388;52.314;7.938;2023-04-04T13:36:42;12.00;99.90
20459;DHT22;10388;52.314;7.938;2023-04-04T13:39:13;12.10;99.90
20459;DHT22;10388;52.314;7.938;2023-04-04T13:41:44;12.60;99.90
20459;DHT22;10388;52.314;7.938;2023-04-04T13:44:15;12.60;99.90
20459;DHT22;10388;52.314;7.938;2023-04-04T13:46:45;11.90;99.90
20459;DHT22;10388;52.314;7.938;2023-04-04T13:49:16;12.10;99.90
20459;DHT22;10388;52.314;7.938;2023-04-04T13:51:47;12.10;99.90
20459;DHT22;10388;52.314;7.938;2023-04-04T13:54:17;10.80;99.90
20459;DHT22;10388;52.314;7.938;2023-04-04T13:56:48;10.60;99.90
20459;DHT22;10388;52.314;7.938;2023-04-04T13:59:18;11.20;99.90
20459;DHT22;10388;52.314;7.938;2023-04-04T14:01:49;11.40;99.90
20459;DHT22;10388;52.314;7.938;2023-04-04T14:04:19;11.00;99.90
20459;DHT22;10388;52.314;7.938;2023-04-04T14:06:50;11.80;99.90
20459;DHT22;10388;52.314;7.938;2023-04-04T14:09:21;11.40;99.90
20459;DHT22;10388;52.314;7.938;2023-04-04T14:11:52;11.30;99.90
20459;DHT22;10388;52.314;7.938;2023-04-04T14:14:22;11.50;99.90
20459;DHT22;10388;52.314;7.938;2023-04-04T14:16:53;11.80;99.90
20459;DHT22;10388;52.314;7.938;2023-04-04T14:19:23;11.60;99.90
20459;DHT22;10388;52.314;7.938;2023-04-04T14:21:54;11.10;99.90
20459;DHT22;10388;52.314;7.938;2023-04-04T14:24:24;10.70;99.90
20459;DHT22;10388;52.314;7.938;2023-04-04T14:26:55;10.60;99.90
20459;DHT22;10388;52.314;7.938;2023-04-04T14:29:26;11.10;99.90
20459;DHT22;10388;52.314;7.938;2023-04-04T14:31:57;11.50;99.90
20459;DHT22;10388;52.314;7.938;2023-04-04T14:34:27;11.10;99.90
20459;DHT22;10388;52.314;7.938;2023-04-04T14:36:58;10.60;99.90
20459;DHT22;10388;52.314;7.938;2023-04-04T14:39:29;10.70;99.90
20459;DHT22;10388;52.314;7.938;2023-04-04T14:42:00;11.00;99.90
20459;DHT22;10388;52.314;7.938;2023-04-04T14:44:30;11.40;99.90
20459;DHT22;10388;52.314;7.938;2023-04-04T14:47:01;11.30;99.90
20459;DHT22;10388;52.314;7.938;2023-04-04T14:49:31;11.40;99.90
20459;DHT22;10388;52.314;7.938;2023-04-04T14:52:02;11.20;99.90
20459;DHT22;10388;52.314;7.938;2023-04-04T14:54:33;11.00;99.90
20459;DHT22;10388;52.314;7.938;2023-04-04T14:57:03;11.00;99.90
20459;DHT22;10388;52.314;7.938;2023-04-04T14:59:34;11.20;99.90
20459;DHT22;10388;52.314;7.938;2023-04-04T15:02:04;11.60;99.90
20459;DHT22;10388;52.314;7.938;2023-04-04T15:04:35;11.70;99.90
20459;DHT22;10388;52.314;7.938;2023-04-04T15:07:06;10.80;99.90
20459;DHT22;10388;52.314;7.938;2023-04-04T15:09:36;11.10;99.90
20459;DHT22;10388;52.314;7.938;2023-04-04T15:12:07;10.80;99.90
20459;DHT22;10388;52.314;7.938;2023-04-04T15:14:37;11.00;99.90
20459;DHT22;10388;52.314;7.938;2023-04-04T15:17:08;11.20;99.90
20459;DHT22;10388;52.314;7.938;2023-04-04T15:19:38;10.10;99.90
20459;DHT22;10388;52.314;7.938;2023-04-04T15:22:10;10.00;99.90
20459;DHT22;10388;52.314;7.938;2023-04-04T15:24:41;10.20;99.90
20459;DHT22;10388;52.314;7.938;2023-04-04T15:27:11;10.60;99.90
20459;DHT22;10388;52.314;7.938;2023-04-04T15:29:42;10.50;99.90
20459;DHT22;10388;52.314;7.938;2023-04-04T15:32:14;10.50;99.90
20459;DHT22;10388;52.314;7.938;2023-04-04T15:34:44;10.40;99.90
20459;DHT22;10388;52.314;7.938;2023-04-04T15:37:15;10.50;99.90
20459;DHT22;10388;52.314;7.938;2023-04-04T15:39:46;10.50;99.90
20459;DHT22;10388;52.314;7.938;2023-04-04T15:42:18;10.40;99.90
20459;DHT22;10388;52.314;7.938;2023-04-04T15:44:48;10.40;99.90
20459;DHT22;10388;52.314;7.938;2023-04-04T15:47:19;10.50;99.90
20459;DHT22;10388;52.314;7.938;2023-04-04T15:49:49;10.20;99.90
20459;DHT22;10388;52.314;7.938;2023-04-04T15:52:20;10.00;99.90
20459;DHT22;10388;52.314;7.938;2023-04-04T15:54:51;9.80;99.90
20459;DHT22;10388;52.314;7.938;2023-04-04T15:57:21;10.00;99.90
20459;DHT22;10388;52.314;7.938;2023-04-04T15:59:52;9.90;99.90
20459;DHT22;10388;52.314;7.938;2023-04-04T16:02:23;9.90;99.90
20459;DHT22;10388;52.314;7.938;2023-04-04T16:04:53;10.00;99.90
20459;DHT22;10388;52.314;7.938;2023-04-04T16:07:24;10.00;99.90
20459;DHT22;10388;52.314;7.938;2023-04-04T16:09:55;10.00;99.90
20459;DHT22;10388;52.314;7.938;2023-04-04T16:12:25;9.90;99.90
20459;DHT22;10388;52.314;7.938;2023-04-04T16:14:56;9.90;99.90
20459;DHT22;10388;52.314;7.938;2023-04-04T16:17:26;9.80;99.90
20459;DHT22;10388;52.314;7.938;2023-04-04T16:19:57;9.70;99.90
20459;DHT22;10388;52.314;7.938;2023-04-04T16:22:27;9.30;99.90
20459;DHT22;10388;52.314;7.938;2023-04-04T16:24:58;9.30;99.90
20459;DHT22;10388;52.314;7.938;2023-04-04T16:27:28;9.20;99.90
20459;DHT22;10388;52.314;7.938;2023-04-04T16:29:59;8.90;99.90
20459;DHT22;10388;52.314;7.938;2023-04-04T16:32:30;8.90;99.90
20459;DHT22;10388;52.314;7.938;2023-04-04T16:35:01;8.80;99.90
20459;DHT22;10388;52.314;7.938;2023-04-04T16:37:31;8.80;99.90
20459;DHT22;10388;52.314;7.938;2023-04-04T16:40:02;8.80;99.90
20459;DHT22;10388;52.314;7.938;2023-04-04T16:42:34;8.80;99.90
20459;DHT22;10388;52.314;7.938;2023-04-04T16:45:05;8.80;99.90
20459;DHT22;10388;52.314;7.938;2023-04-04T16:47:37;8.60;99.90
20459;DHT22;10388;52.314;7.938;2023-04-04T16:50:08;8.50;99.90
20459;DHT22;10388;52.314;7.938;2023-04-04T16:52:38;8.50;99.90
20459;DHT22;10388;52.314;7.938;2023-04-04T16:55:09;8.50;99.90
20459;DHT22;10388;52.314;7.938;2023-04-04T16:57:40;8.10;99.90
20459;DHT22;10388;52.314;7.938;2023-04-04T17:00:11;8.20;99.90
20459;DHT22;10388;52.314;7.938;2023-04-04T17:02:43;8.10;99.90
20459;DHT22;10388;52.314;7.938;2023-04-04T17:05:16;8.10;99.90
20459;DHT22;10388;52.314;7.938;2023-04-04T17:07:47;8.00;99.90
20459;DHT22;10388;52.314;7.938;2023-04-04T17:10:17;8.10;99.90
20459;DHT22;10388;52.314;7.938;2023-04-04T17:12:48;8.00;99.90
20459;DHT22;10388;52.314;7.938;2023-04-04T17:15:20;8.00;99.90
20459;DHT22;10388;52.314;7.938;2023-04-04T17:17:51;7.90;99.90
20459;DHT22;10388;52.314;7.938;2023-04-04T17:20:21;7.80;99.90
20459;DHT22;10388;52.314;7.938;2023-04-04T17:22:52;7.70;99.90
20459;DHT22;10388;52.314;7.938;2023-04-04T17:25:23;7.50;99.90
20459;DHT22;10388;52.314;7.938;2023-04-04T17:27:58;7.70;99.90
20459;DHT22;10388;52.314;7.938;2023-04-04T17:30:28;7.70;99.90
20459;DHT22;10388;52.314;7.938;2023-04-04T17:32:59;7.60;99.90
20459;DHT22;10388;52.314;7.938;2023-04-04T17:35:30;7.60;99.90
20459;DHT22;10388;52.314;7.938;2023-04-04T17:38:00;7.50;99.90
20459;DHT22;10388;52.314;7.938;2023-04-04T17:40:31;7.50;99.90
20459;DHT22;10388;52.314;7.938;2023-04-04T17:43:01;7.40;99.90
20459;DHT22;10388;52.314;7.938;2023-04-04T17:45:32;7.40;99.90
20459;DHT22;10388;52.314;7.938;2023-04-04T17:48:02;7.30;99.90
20459;DHT22;10388;52.314;7.938;2023-04-04T17:50:33;7.30;99.90
20459;DHT22;10388;52.314;7.938;2023-04-04T17:53:03;7.30;99.90
20459;DHT22;10388;52.314;7.938;2023-04-04T17:55:34;7.20;99.90
20459;DHT22;10388;52.314;7.938;2023-04-04T17:58:06;7.20;99.90
20459;DHT22;10388;52.314;7.938;2023-04-04T18:00:36;7.10;99.90
20459;DHT22;10388;52.314;7.938;2023-04-04T18:03:07;7.00;99.90
20459;DHT22;10388;52.314;7.938;2023-04-04T18:05:39;7.00;99.90
20459;DHT22;10388;52.314;7.938;2023-04-04T18:08:10;7.00;99.90
20459;DHT22;10388;52.314;7.938;2023-04-04T18:10:40;6.90;99.90
20459;DHT22;10388;52.314;7.938;2023-04-04T18:13:11;6.90;99.90
20459;DHT22;10388;52.314;7.938;2023-04-04T18:15:42;6.80;99.90
20459;DHT22;10388;52.314;7.938;2023-04-04T18:18:12;6.70;99.90
20459;DHT22;10388;52.314;7.938;2023-04-04T18:20:43;6.70;99.90
20459;DHT22;10388;52.314;7.938;2023-04-04T18:23:13;6.60;99.90
20459;DHT22;10388;52.314;7.938;2023-04-04T18:25:45;6.50;99.90
20459;DHT22;10388;52.314;7.938;2023-04-04T18:28:16;6.50;99.90
20459;DHT22;10388;52.314;7.938;2023-04-04T18:30:47;6.50;99.90
20459;DHT22;10388;52.314;7.938;2023-04-04T18:33:18;6.40;99.90
20459;DHT22;10388;52.314;7.938;2023-04-04T18:35:49;6.30;99.90
20459;DHT22;10388;52.314;7.938;2023-04-04T18:38:19;6.30;99.90
20459;DHT22;10388;52.314;7.938;2023-04-04T18:40:50;6.20;99.90
20459;DHT22;10388;52.314;7.938;2023-04-04T18:43:23;6.20;99.90
20459;DHT22;10388;52.314;7.938;2023-04-04T18:45:54;6.10;99.90
20459;DHT22;10388;52.314;7.938;2023-04-04T18:48:24;6.10;99.90
20459;DHT22;10388;52.314;7.938;2023-04-04T18:50:55;6.10;99.90
20459;DHT22;10388;52.314;7.938;2023-04-04T18:53:25;6.00;99.90
20459;DHT22;10388;52.314;7.938;2023-04-04T18:55:58;6.00;99.90
20459;DHT22;10388;52.314;7.938;2023-04-04T18:58:31;6.00;99.90
20459;DHT22;10388;52.314;7.938;2023-04-04T19:01:02;5.90;99.90
20459;DHT22;10388;52.314;7.938;2023-04-04T19:03:40;5.90;99.90
20459;DHT22;10388;52.314;7.938;2023-04-04T19:06:12;5.80;99.90
20459;DHT22;10388;52.314;7.938;2023-04-04T19:08:43;5.80;99.90
20459;DHT22;10388;52.314;7.938;2023-04-04T19:11:13;5.80;99.90
20459;DHT22;10388;52.314;7.938;2023-04-04T19:13:44;5.70;99.90
20459;DHT22;10388;52.314;7.938;2023-04-04T19:16:15;5.70;99.90